sensor_id;sensor_type;location;lat;lon;timestamp;pressure;altitude;pressure_sealevel;temperature;humidity
72038;BME280;59900;50.788;12.904;2022-10-29T00:01:07;98183.34;;;19.22;55.15
72038;BME280;59900;50.788;12.904;2022-10-29T00:03:32;98183.00;;;19.19;55.26
72038;BME280;59900;50.788;12.904;2022-10-29T00:06:00;98180.78;;;19.16;55.23
72038;BME280;59900;50.788;12.904;2022-10-29T00:08:27;98174.91;;;19.14;55.45
72038;BME280;59900;50.788;12.904;2022-10-29T00:10:53;98177.78;;;19.12;55.38
72038;BME280;59900;50.788;12.904;2022-10-29T00:13:18;98180.44;;;19.12;55.85
72038;BME280;59900;50.788;12.904;2022-10-29T00:15:44;98185.22;;;19.10;55.93
72038;BME280;59900;50.788;12.904;2022-10-29T00:18:09;98175.94;;;19.13;56.19
72038;BME280;59900;50.788;12.904;2022-10-29T00:20:34;98179.88;;;19.10;56.29
72038;BME280;59900;50.788;12.904;2022-10-29T00:22:59;98183.56;;;19.09;56.33
72038;BME280;59900;50.788;12.904;2022-10-29T00:25:25;98182.19;;;19.07;55.87
72038;BME280;59900;50.788;12.904;2022-10-29T00:27:50;98188.56;;;19.06;55.90
72038;BME280;59900;50.788;12.904;2022-10-29T00:30:15;98180.81;;;19.04;56.49
72038;BME280;59900;50.788;12.904;2022-10-29T00:32:41;98188.47;;;19.00;56.40
72038;BME280;59900;50.788;12.904;2022-10-29T00:35:06;98188.47;;;19.00;56.63
72038;BME280;59900;50.788;12.904;2022-10-29T00:37:31;98189.50;;;18.99;57.02
72038;BME280;59900;50.788;12.904;2022-10-29T00:39:57;98186.81;;;18.99;56.45
72038;BME280;59900;50.788;12.904;2022-10-29T00:42:22;98187.44;;;19.01;56.67
72038;BME280;59900;50.788;12.904;2022-10-29T00:44:47;98175.13;;;19.00;56.55
72038;BME280;59900;50.788;12.904;2022-10-29T00:47:18;98178.63;;;19.01;56.60
72038;BME280;59900;50.788;12.904;2022-10-29T00:49:47;98183.69;;;19.02;56.71
72038;BME280;59900;50.788;12.904;2022-10-29T00:52:14;98175.13;;;19.00;57.10
72038;BME280;59900;50.788;12.904;2022-10-29T00:54:43;98177.00;;;19.00;57.10
72038;BME280;59900;50.788;12.904;2022-10-29T00:57:19;98174.78;;;18.97;57.51
72038;BME280;59900;50.788;12.904;2022-10-29T00:59:47;98178.72;;;18.94;57.44
72038;BME280;59900;50.788;12.904;2022-10-29T01:02:13;98172.38;;;18.95;57.36
72038;BME280;59900;50.788;12.904;2022-10-29T01:04:40;98175.25;;;18.94;57.41
72038;BME280;59900;50.788;12.904;2022-10-29T01:07:05;98172.38;;;18.95;57.29
72038;BME280;59900;50.788;12.904;2022-10-29T01:09:31;98176.06;;;18.94;57.21
72038;BME280;59900;50.788;12.904;2022-10-29T01:12:17;98175.25;;;18.94;57.99
72038;BME280;59900;50.788;12.904;2022-10-29T01:20:31;98177.34;;;18.92;57.91
72038;BME280;59900;50.788;12.904;2022-10-29T01:25:58;98163.94;;;18.87;58.03
72038;BME280;59900;50.788;12.904;2022-10-29T01:31:27;98160.66;;;18.85;58.22
72038;BME280;59900;50.788;12.904;2022-10-29T01:34:16;98168.91;;;18.83;58.50
72038;BME280;59900;50.788;12.904;2022-10-29T01:39:32;98167.88;;;18.84;58.58
72038;BME280;59900;50.788;12.904;2022-10-29T01:42:11;98167.88;;;18.84;58.29
72038;BME280;59900;50.788;12.904;2022-10-29T01:44:50;98168.09;;;18.83;58.48
72038;BME280;59900;50.788;12.904;2022-10-29T01:47:19;98160.09;;;18.83;58.17
72038;BME280;59900;50.788;12.904;2022-10-29T01:49:48;98161.50;;;18.85;58.57
72038;BME280;59900;50.788;12.904;2022-10-29T01:52:16;98155.13;;;18.86;58.61
72038;BME280;59900;50.788;12.904;2022-10-29T01:54:44;98164.16;;;18.85;58.64
72038;BME280;59900;50.788;12.904;2022-10-29T01:57:33;98158.00;;;18.85;58.75
72038;BME280;59900;50.788;12.904;2022-10-29T02:00:08;98149.91;;;18.80;58.63
72038;BME280;59900;50.788;12.904;2022-10-29T02:03:00;98151.41;;;18.76;58.67
72038;BME280;59900;50.788;12.904;2022-10-29T02:05:51;98149.25;;;18.73;59.30
72038;BME280;59900;50.788;12.904;2022-10-29T02:08:47;98153.16;;;18.70;59.76
72038;BME280;59900;50.788;12.904;2022-10-29T02:11:24;98156.53;;;18.66;59.61
72038;BME280;59900;50.788;12.904;2022-10-29T02:14:11;98156.19;;;18.62;59.27
72038;BME280;59900;50.788;12.904;2022-10-29T02:16:39;98150.75;;;18.57;59.67
72038;BME280;59900;50.788;12.904;2022-10-29T02:19:05;98153.97;;;18.59;59.89
72038;BME280;59900;50.788;12.904;2022-10-29T02:21:30;98160.00;;;18.55;59.84
72038;BME280;59900;50.788;12.904;2022-10-29T02:23:56;98158.63;;;18.52;60.32
72038;BME280;59900;50.788;12.904;2022-10-29T02:26:21;98155.16;;;18.52;59.86
72038;BME280;59900;50.788;12.904;2022-10-29T02:28:46;98149.66;;;18.46;60.27
72038;BME280;59900;50.788;12.904;2022-10-29T02:31:11;98144.00;;;18.43;60.07
72038;BME280;59900;50.788;12.904;2022-10-29T02:33:37;98147.44;;;18.43;60.58
72038;BME280;59900;50.788;12.904;2022-10-29T02:36:02;98153.25;;;18.40;60.19
72038;BME280;59900;50.788;12.904;2022-10-29T02:38:28;98142.25;;;18.37;60.60
72038;BME280;59900;50.788;12.904;2022-10-29T02:40:53;98151.28;;;18.36;60.69
72038;BME280;59900;50.788;12.904;2022-10-29T02:43:18;98141.09;;;18.33;60.95
72038;BME280;59900;50.788;12.904;2022-10-29T02:45:44;98146.31;;;18.28;60.64
72038;BME280;59900;50.788;12.904;2022-10-29T02:48:09;98151.84;;;18.26;60.99
72038;BME280;59900;50.788;12.904;2022-10-29T02:50:34;98151.50;;;18.23;61.23
72038;BME280;59900;50.788;12.904;2022-10-29T02:53:00;98152.44;;;18.17;61.74
72038;BME280;59900;50.788;12.904;2022-10-29T02:55:25;98157.59;;;18.12;61.73
72038;BME280;59900;50.788;12.904;2022-10-29T02:57:50;98158.75;;;18.04;61.86
72038;BME280;59900;50.788;12.904;2022-10-29T03:00:15;98161.88;;;18.01;62.25
72038;BME280;59900;50.788;12.904;2022-10-29T03:02:41;98164.75;;;18.00;62.17
72038;BME280;59900;50.788;12.904;2022-10-29T03:05:06;98164.84;;;17.93;62.23
72038;BME280;59900;50.788;12.904;2022-10-29T03:07:36;98167.72;;;17.91;62.52
72038;BME280;59900;50.788;12.904;2022-10-29T03:10:06;98174.31;;;17.89;62.47
72038;BME280;59900;50.788;12.904;2022-10-29T03:12:32;98172.34;;;17.84;62.52
72038;BME280;59900;50.788;12.904;2022-10-29T03:14:57;98172.34;;;17.84;62.76
72038;BME280;59900;50.788;12.904;2022-10-29T03:17:23;98175.91;;;17.78;63.11
72038;BME280;59900;50.788;12.904;2022-10-29T03:19:48;98172.06;;;17.74;63.34
72038;BME280;59900;50.788;12.904;2022-10-29T03:22:13;98177.03;;;17.71;63.77
72038;BME280;59900;50.788;12.904;2022-10-29T03:24:39;98177.09;;;17.64;63.49
72038;BME280;59900;50.788;12.904;2022-10-29T03:27:04;98172.25;;;17.61;63.58
72038;BME280;59900;50.788;12.904;2022-10-29T03:29:29;98178.59;;;17.60;64.04
72038;BME280;59900;50.788;12.904;2022-10-29T03:31:54;98169.59;;;17.61;63.90
72038;BME280;59900;50.788;12.904;2022-10-29T03:34:20;98173.88;;;17.62;63.77
72038;BME280;59900;50.788;12.904;2022-10-29T03:36:45;98165.09;;;17.62;64.39
72038;BME280;59900;50.788;12.904;2022-10-29T03:39:10;98163.25;;;17.62;64.31
72038;BME280;59900;50.788;12.904;2022-10-29T03:41:35;98164.06;;;17.63;63.85
72038;BME280;59900;50.788;12.904;2022-10-29T03:44:01;98167.75;;;17.62;63.98
72038;BME280;59900;50.788;12.904;2022-10-29T03:46:26;98174.91;;;17.61;64.12
72038;BME280;59900;50.788;12.904;2022-10-29T03:48:51;98162.88;;;17.59;64.32
72038;BME280;59900;50.788;12.904;2022-10-29T03:51:17;98179.50;;;17.54;64.46
72038;BME280;59900;50.788;12.904;2022-10-29T03:53:42;98182.44;;;17.46;64.48
72038;BME280;59900;50.788;12.904;2022-10-29T03:56:08;98183.53;;;17.38;65.13
72038;BME280;59900;50.788;12.904;2022-10-29T03:58:33;98194.94;;;17.27;65.37
72038;BME280;59900;50.788;12.904;2022-10-29T04:01:04;98192.13;;;17.22;65.57
72038;BME280;59900;50.788;12.904;2022-10-29T04:03:31;98190.66;;;17.08;66.17
72038;BME280;59900;50.788;12.904;2022-10-29T04:05:58;98187.63;;;17.05;65.69
72038;BME280;59900;50.788;12.904;2022-10-29T04:08:23;98189.69;;;17.03;66.53
72038;BME280;59900;50.788;12.904;2022-10-29T04:10:50;98190.13;;;17.00;66.47
72038;BME280;59900;50.788;12.904;2022-10-29T04:13:16;98184.81;;;17.00;66.26
72038;BME280;59900;50.788;12.904;2022-10-29T04:15:42;98186.88;;;16.98;66.72
72038;BME280;59900;50.788;12.904;2022-10-29T04:18:08;98189.53;;;16.98;66.60
72038;BME280;59900;50.788;12.904;2022-10-29T04:20:35;98186.28;;;16.96;66.49
72038;BME280;59900;50.788;12.904;2022-10-29T04:23:00;98180.53;;;16.99;66.26
72038;BME280;59900;50.788;12.904;2022-10-29T04:25:25;98182.16;;;17.00;66.58
72038;BME280;59900;50.788;12.904;2022-10-29T04:27:53;98174.78;;;17.02;65.87
72038;BME280;59900;50.788;12.904;2022-10-29T04:30:19;98178.84;;;17.04;66.45
72038;BME280;59900;50.788;12.904;2022-10-29T04:32:44;98176.19;;;17.04;66.32
72038;BME280;59900;50.788;12.904;2022-10-29T04:35:10;98185.78;;;17.05;66.10
72038;BME280;59900;50.788;12.904;2022-10-29T04:37:35;98182.09;;;17.06;66.08
72038;BME280;59900;50.788;12.904;2022-10-29T04:40:00;98186.38;;;17.07;66.04
72038;BME280;59900;50.788;12.904;2022-10-29T04:42:25;98184.16;;;17.04;66.38
72038;BME280;59900;50.788;12.904;2022-10-29T04:44:51;98186.22;;;17.02;66.51
72038;BME280;59900;50.788;12.904;2022-10-29T04:47:16;98189.91;;;17.01;66.67
72038;BME280;59900;50.788;12.904;2022-10-29T04:49:41;98183.19;;;16.99;66.75
72038;BME280;59900;50.788;12.904;2022-10-29T04:52:06;98173.84;;;16.96;66.59
72038;BME280;59900;50.788;12.904;2022-10-29T04:54:32;98177.75;;;16.94;66.92
72038;BME280;59900;50.788;12.904;2022-10-29T04:56:57;98186.72;;;16.93;66.49
72038;BME280;59900;50.788;12.904;2022-10-29T04:59:22;98189.84;;;16.90;67.00
72038;BME280;59900;50.788;12.904;2022-10-29T05:01:47;98181.47;;;16.86;66.86
72038;BME280;59900;50.788;12.904;2022-10-29T05:04:13;98188.88;;;16.84;67.30
72038;BME280;59900;50.788;12.904;2022-10-29T05:06:38;98183.19;;;16.80;67.74
72038;BME280;59900;50.788;12.904;2022-10-29T05:09:03;98188.50;;;16.80;67.57
72038;BME280;59900;50.788;12.904;2022-10-29T05:11:29;98180.75;;;16.79;67.19
72038;BME280;59900;50.788;12.904;2022-10-29T05:13:54;98177.50;;;16.77;67.86
72038;BME280;59900;50.788;12.904;2022-10-29T05:16:19;98187.09;;;16.78;68.04
72038;BME280;59900;50.788;12.904;2022-10-29T05:18:45;98181.97;;;16.76;67.56
72038;BME280;59900;50.788;12.904;2022-10-29T05:21:10;98186.72;;;16.74;67.57
72038;BME280;59900;50.788;12.904;2022-10-29T05:23:35;98179.19;;;16.71;68.04
72038;BME280;59900;50.788;12.904;2022-10-29T05:26:00;98187.81;;;16.67;68.38
72038;BME280;59900;50.788;12.904;2022-10-29T05:28:26;98191.50;;;16.66;67.90
72038;BME280;59900;50.788;12.904;2022-10-29T05:30:51;98183.38;;;16.61;68.26
72038;BME280;59900;50.788;12.904;2022-10-29T05:33:19;98187.28;;;16.58;68.42
72038;BME280;59900;50.788;12.904;2022-10-29T05:35:45;98184.00;;;16.56;68.44
72038;BME280;59900;50.788;12.904;2022-10-29T05:38:11;98185.84;;;16.56;68.72
72038;BME280;59900;50.788;12.904;2022-10-29T05:40:37;98182.75;;;16.59;68.33
72038;BME280;59900;50.788;12.904;2022-10-29T05:43:03;98190.38;;;16.55;68.91
72038;BME280;59900;50.788;12.904;2022-10-29T05:45:28;98191.16;;;16.56;69.08
72038;BME280;59900;50.788;12.904;2022-10-29T05:47:55;98196.09;;;16.52;68.81
72038;BME280;59900;50.788;12.904;2022-10-29T05:50:21;98189.19;;;16.45;69.33
72038;BME280;59900;50.788;12.904;2022-10-29T05:52:54;98186.16;;;16.41;69.18
72038;BME280;59900;50.788;12.904;2022-10-29T05:55:19;98193.38;;;16.34;69.00
72038;BME280;59900;50.788;12.904;2022-10-29T05:57:45;98187.69;;;16.31;69.40
72038;BME280;59900;50.788;12.904;2022-10-29T06:00:10;98187.34;;;16.20;69.59
72038;BME280;59900;50.788;12.904;2022-10-29T06:02:35;98192.31;;;16.10;70.07
72038;BME280;59900;50.788;12.904;2022-10-29T06:05:01;98190.31;;;16.06;70.77
72038;BME280;59900;50.788;12.904;2022-10-29T06:07:26;98192.34;;;16.04;70.21
72038;BME280;59900;50.788;12.904;2022-10-29T06:09:51;98199.09;;;16.00;70.53
72038;BME280;59900;50.788;12.904;2022-10-29T06:12:16;98192.63;;;15.96;70.76
72038;BME280;59900;50.788;12.904;2022-10-29T06:14:42;98197.97;;;15.89;71.00
72038;BME280;59900;50.788;12.904;2022-10-29T06:17:07;98199.84;;;15.82;71.15
72038;BME280;59900;50.788;12.904;2022-10-29T06:19:32;98204.56;;;15.74;71.44
72038;BME280;59900;50.788;12.904;2022-10-29T06:21:58;98208.47;;;15.71;72.21
72038;BME280;59900;50.788;12.904;2022-10-29T06:24:23;98214.56;;;15.72;71.98
72038;BME280;59900;50.788;12.904;2022-10-29T06:26:51;98215.97;;;15.74;72.07
72038;BME280;59900;50.788;12.904;2022-10-29T06:29:17;98219.63;;;15.80;72.32
72038;BME280;59900;50.788;12.904;2022-10-29T06:31:42;98213.72;;;15.78;71.96
72038;BME280;59900;50.788;12.904;2022-10-29T06:34:07;98210.06;;;15.79;71.99
72038;BME280;59900;50.788;12.904;2022-10-29T06:36:32;98211.66;;;15.80;72.20
72038;BME280;59900;50.788;12.904;2022-10-29T06:38:58;98213.31;;;15.81;71.97
72038;BME280;59900;50.788;12.904;2022-10-29T06:41:23;98211.50;;;15.75;72.54
72038;BME280;59900;50.788;12.904;2022-10-29T06:43:51;98213.75;;;15.71;72.24
72038;BME280;59900;50.788;12.904;2022-10-29T06:46:16;98220.94;;;15.64;72.61
72038;BME280;59900;50.788;12.904;2022-10-29T06:48:41;98218.31;;;15.57;73.13
72038;BME280;59900;50.788;12.904;2022-10-29T06:51:07;98216.50;;;15.51;73.23
72038;BME280;59900;50.788;12.904;2022-10-29T06:53:32;98225.69;;;15.49;73.13
72038;BME280;59900;50.788;12.904;2022-10-29T06:55:58;98241.00;;;15.47;73.65
72038;BME280;59900;50.788;12.904;2022-10-29T06:58:23;98229.75;;;15.51;73.75
72038;BME280;59900;50.788;12.904;2022-10-29T07:00:49;98229.75;;;15.51;73.50
72038;BME280;59900;50.788;12.904;2022-10-29T07:03:15;98223.03;;;15.55;73.39
72038;BME280;59900;50.788;12.904;2022-10-29T07:05:41;98236.63;;;15.59;73.52
72038;BME280;59900;50.788;12.904;2022-10-29T07:08:06;98231.91;;;15.67;73.46
72038;BME280;59900;50.788;12.904;2022-10-29T07:10:32;98238.16;;;15.80;73.33
72038;BME280;59900;50.788;12.904;2022-10-29T07:12:58;98234.06;;;15.90;73.39
72038;BME280;59900;50.788;12.904;2022-10-29T07:15:24;98231.72;;;16.00;73.58
72038;BME280;59900;50.788;12.904;2022-10-29T07:17:57;98229.22;;;16.12;74.37
72038;BME280;59900;50.788;12.904;2022-10-29T07:20:22;98229.41;;;16.17;74.74
72038;BME280;59900;50.788;12.904;2022-10-29T07:22:49;98234.44;;;16.25;73.03
72038;BME280;59900;50.788;12.904;2022-10-29T07:25:14;98224.88;;;16.17;72.69
72038;BME280;59900;50.788;12.904;2022-10-29T07:27:39;98217.97;;;16.16;73.10
72038;BME280;59900;50.788;12.904;2022-10-29T07:30:05;98216.56;;;16.14;72.37
72038;BME280;59900;50.788;12.904;2022-10-29T07:32:30;98216.78;;;16.12;73.77
72038;BME280;59900;50.788;12.904;2022-10-29T07:34:56;98220.47;;;16.11;73.46
72038;BME280;59900;50.788;12.904;2022-10-29T07:37:21;98218.84;;;16.10;73.48
72038;BME280;59900;50.788;12.904;2022-10-29T07:39:46;98210.06;;;16.10;73.75
72038;BME280;59900;50.788;12.904;2022-10-29T07:42:11;98217.81;;;16.11;73.72
72038;BME280;59900;50.788;12.904;2022-10-29T07:44:37;98217.97;;;16.16;74.72
72038;BME280;59900;50.788;12.904;2022-10-29T07:47:02;98222.03;;;16.19;74.96
72038;BME280;59900;50.788;12.904;2022-10-29T07:49:27;98233.59;;;16.31;76.14
72038;BME280;59900;50.788;12.904;2022-10-29T07:51:53;98241.28;;;16.39;77.21
72038;BME280;59900;50.788;12.904;2022-10-29T07:54:18;98247.56;;;16.45;75.82
72038;BME280;59900;50.788;12.904;2022-10-29T07:56:43;98248.97;;;16.47;76.21
72038;BME280;59900;50.788;12.904;2022-10-29T07:59:08;98236.91;;;16.51;75.81
72038;BME280;59900;50.788;12.904;2022-10-29T08:01:34;98238.72;;;16.57;75.09
72038;BME280;59900;50.788;12.904;2022-10-29T08:03:59;98224.59;;;16.63;74.35
72038;BME280;59900;50.788;12.904;2022-10-29T08:06:24;98224.09;;;16.73;77.29
72038;BME280;59900;50.788;12.904;2022-10-29T08:08:50;98218.06;;;16.84;78.63
72038;BME280;59900;50.788;12.904;2022-10-29T08:11:15;98220.44;;;16.92;77.11
72038;BME280;59900;50.788;12.904;2022-10-29T08:13:40;98219.31;;;17.00;76.87
72038;BME280;59900;50.788;12.904;2022-10-29T08:16:06;98231.09;;;17.10;77.14
72038;BME280;59900;50.788;12.904;2022-10-29T08:18:31;98216.78;;;17.11;78.17
72038;BME280;59900;50.788;12.904;2022-10-29T08:20:56;98214.84;;;17.18;77.99
72038;BME280;59900;50.788;12.904;2022-10-29T08:23:22;98204.34;;;17.23;76.33
72038;BME280;59900;50.788;12.904;2022-10-29T08:25:48;98210.63;;;17.29;77.72
72038;BME280;59900;50.788;12.904;2022-10-29T08:28:14;98209.97;;;17.33;78.12
72038;BME280;59900;50.788;12.904;2022-10-29T08:30:40;98202.16;;;17.38;78.37
72038;BME280;59900;50.788;12.904;2022-10-29T08:33:06;98198.84;;;17.43;78.14
72038;BME280;59900;50.788;12.904;2022-10-29T08:35:32;98196.31;;;17.48;78.10
72038;BME280;59900;50.788;12.904;2022-10-29T08:37:57;98182.56;;;17.51;79.03
72038;BME280;59900;50.788;12.904;2022-10-29T08:43:59;98190.84;;;17.61;79.67
72038;BME280;59900;50.788;12.904;2022-10-29T08:51:54;98192.31;;;17.75;76.19
72038;BME280;59900;50.788;12.904;2022-10-29T08:54:24;98188.50;;;17.83;77.37
72038;BME280;59900;50.788;12.904;2022-10-29T08:56:53;98185.19;;;17.87;78.58
72038;BME280;59900;50.788;12.904;2022-10-29T08:59:25;98188.19;;;17.91;79.54
72038;BME280;59900;50.788;12.904;2022-10-29T09:01:55;98189.81;;;17.92;77.23
72038;BME280;59900;50.788;12.904;2022-10-29T09:04:32;98187.63;;;17.89;77.24
72038;BME280;59900;50.788;12.904;2022-10-29T09:07:19;98182.09;;;17.90;75.38
72038;BME280;59900;50.788;12.904;2022-10-29T09:09:55;98186.47;;;17.97;77.83
72038;BME280;59900;50.788;12.904;2022-10-29T09:12:43;98198.84;;;18.03;77.89
72038;BME280;59900;50.788;12.904;2022-10-29T09:23:26;98207.94;;;18.13;73.14
72038;BME280;59900;50.788;12.904;2022-10-29T09:26:02;98207.13;;;18.13;73.85
72038;BME280;59900;50.788;12.904;2022-10-29T09:31:44;98194.53;;;18.20;73.23
72038;BME280;59900;50.788;12.904;2022-10-29T09:34:27;98197.78;;;18.22;73.08
72038;BME280;59900;50.788;12.904;2022-10-29T09:36:55;98195.09;;;18.22;74.43
72038;BME280;59900;50.788;12.904;2022-10-29T09:39:37;98195.78;;;18.29;71.53
72038;BME280;59900;50.788;12.904;2022-10-29T09:42:32;98194.66;;;18.36;73.98
72038;BME280;59900;50.788;12.904;2022-10-29T09:45:01;98193.41;;;18.39;71.12
72038;BME280;59900;50.788;12.904;2022-10-29T09:47:44;98181.38;;;18.48;71.16
72038;BME280;59900;50.788;12.904;2022-10-29T09:50:25;98184.78;;;18.55;70.72
72038;BME280;59900;50.788;12.904;2022-10-29T09:52:52;98180.72;;;18.64;72.03
72038;BME280;59900;50.788;12.904;2022-10-29T09:55:22;98180.38;;;18.72;73.05
72038;BME280;59900;50.788;12.904;2022-10-29T09:57:48;98182.13;;;18.78;69.73
72038;BME280;59900;50.788;12.904;2022-10-29T10:00:21;98181.75;;;18.86;71.03
72038;BME280;59900;50.788;12.904;2022-10-29T10:02:57;98177.81;;;19.00;68.67
72038;BME280;59900;50.788;12.904;2022-10-29T10:05:32;98184.16;;;19.11;70.35
72038;BME280;59900;50.788;12.904;2022-10-29T10:08:09;98181.00;;;19.26;69.60
72038;BME280;59900;50.788;12.904;2022-10-29T10:10:38;98182.06;;;19.25;67.09
72038;BME280;59900;50.788;12.904;2022-10-29T10:13:12;98190.25;;;19.35;67.78
72038;BME280;59900;50.788;12.904;2022-10-29T10:15:51;98181.59;;;19.39;63.92
72038;BME280;59900;50.788;12.904;2022-10-29T10:18:22;98183.88;;;19.47;65.48
72038;BME280;59900;50.788;12.904;2022-10-29T10:21:06;98191.66;;;19.49;65.47
72038;BME280;59900;50.788;12.904;2022-10-29T10:23:49;98173.53;;;19.51;65.18
72038;BME280;59900;50.788;12.904;2022-10-29T10:26:40;98170.97;;;19.56;67.15
72038;BME280;59900;50.788;12.904;2022-10-29T10:29:14;98174.53;;;19.62;66.03
72038;BME280;59900;50.788;12.904;2022-10-29T10:31:42;98163.88;;;19.62;64.88
72038;BME280;59900;50.788;12.904;2022-10-29T10:34:22;98166.66;;;19.67;64.72
72038;BME280;59900;50.788;12.904;2022-10-29T10:36:53;98164.63;;;19.74;66.52
72038;BME280;59900;50.788;12.904;2022-10-29T10:39:24;98158.91;;;19.82;66.30
72038;BME280;59900;50.788;12.904;2022-10-29T10:41:50;98161.44;;;19.88;66.98
72038;BME280;59900;50.788;12.904;2022-10-29T10:44:17;98165.00;;;19.94;64.91
72038;BME280;59900;50.788;12.904;2022-10-29T10:46:43;98162.66;;;19.97;65.40
72038;BME280;59900;50.788;12.904;2022-10-29T10:49:13;98154.84;;;20.07;65.61
72038;BME280;59900;50.788;12.904;2022-10-29T10:51:51;98149.25;;;20.09;65.69
72038;BME280;59900;50.788;12.904;2022-10-29T10:54:28;98143.84;;;20.21;66.35
72038;BME280;59900;50.788;12.904;2022-10-29T11:02:16;98135.47;;;20.45;63.48
72038;BME280;59900;50.788;12.904;2022-10-29T11:04:45;98136.41;;;20.56;64.43
72038;BME280;59900;50.788;12.904;2022-10-29T11:07:16;98131.78;;;20.68;65.61
72038;BME280;59900;50.788;12.904;2022-10-29T11:09:45;98117.50;;;20.79;64.76
72038;BME280;59900;50.788;12.904;2022-10-29T11:12:30;98124.31;;;20.87;67.25
72038;BME280;59900;50.788;12.904;2022-10-29T11:15:02;98124.06;;;20.88;65.42
72038;BME280;59900;50.788;12.904;2022-10-29T11:17:54;98116.66;;;20.95;61.64
72038;BME280;59900;50.788;12.904;2022-10-29T11:20:23;98110.06;;;21.03;61.37
72038;BME280;59900;50.788;12.904;2022-10-29T11:23:00;98115.28;;;21.09;63.13
72038;BME280;59900;50.788;12.904;2022-10-29T11:25:33;98109.34;;;21.07;63.17
72038;BME280;59900;50.788;12.904;2022-10-29T11:28:22;98105.94;;;21.12;61.83
72038;BME280;59900;50.788;12.904;2022-10-29T11:31:17;98099.28;;;21.14;62.41
72038;BME280;59900;50.788;12.904;2022-10-29T11:33:51;98096.44;;;21.21;59.76
72038;BME280;59900;50.788;12.904;2022-10-29T11:36:22;98089.59;;;21.30;59.78
72038;BME280;59900;50.788;12.904;2022-10-29T11:38:58;98097.97;;;21.39;61.85
72038;BME280;59900;50.788;12.904;2022-10-29T11:41:39;98097.50;;;21.47;60.50
72038;BME280;59900;50.788;12.904;2022-10-29T11:44:11;98096.53;;;21.58;58.84
72038;BME280;59900;50.788;12.904;2022-10-29T11:46:47;98102.00;;;21.68;61.31
72038;BME280;59900;50.788;12.904;2022-10-29T11:52:20;98096.66;;;21.68;57.60
72038;BME280;59900;50.788;12.904;2022-10-29T11:57:45;98101.69;;;21.64;59.29
72038;BME280;59900;50.788;12.904;2022-10-29T12:00:16;98099.53;;;21.61;58.96
72038;BME280;59900;50.788;12.904;2022-10-29T12:03:18;98097.88;;;21.55;58.72
72038;BME280;59900;50.788;12.904;2022-10-29T12:05:53;98090.91;;;21.54;58.07
72038;BME280;59900;50.788;12.904;2022-10-29T12:08:47;98090.66;;;21.56;59.01
72038;BME280;59900;50.788;12.904;2022-10-29T12:14:34;98083.94;;;21.80;59.22
72038;BME280;59900;50.788;12.904;2022-10-29T12:17:16;98085.34;;;21.88;57.39
72038;BME280;59900;50.788;12.904;2022-10-29T12:25:50;98075.94;;;22.12;55.89
72038;BME280;59900;50.788;12.904;2022-10-29T12:33:26;98049.38;;;22.47;60.04
72038;BME280;59900;50.788;12.904;2022-10-29T12:36:03;98057.22;;;22.59;57.97
72038;BME280;59900;50.788;12.904;2022-10-29T12:38:40;98051.88;;;22.64;56.75
72038;BME280;59900;50.788;12.904;2022-10-29T12:41:17;98061.06;;;22.68;56.89
72038;BME280;59900;50.788;12.904;2022-10-29T12:43:43;98052.72;;;22.64;57.94
72038;BME280;59900;50.788;12.904;2022-10-29T12:46:37;98044.69;;;22.69;57.25
72038;BME280;59900;50.788;12.904;2022-10-29T12:49:15;98044.63;;;22.54;56.89
72038;BME280;59900;50.788;12.904;2022-10-29T12:51:48;98041.78;;;22.34;57.63
72038;BME280;59900;50.788;12.904;2022-10-29T12:55:03;98037.22;;;22.24;57.54
72038;BME280;59900;50.788;12.904;2022-10-29T12:59:39;98031.72;;;22.04;58.31
72038;BME280;59900;50.788;12.904;2022-10-29T13:02:25;98023.06;;;21.92;58.90
72038;BME280;59900;50.788;12.904;2022-10-29T13:15:45;98042.00;;;21.59;60.26
72038;BME280;59900;50.788;12.904;2022-10-29T13:20:48;98030.94;;;21.45;60.25
72038;BME280;59900;50.788;12.904;2022-10-29T13:25:53;98025.22;;;21.37;61.89
72038;BME280;59900;50.788;12.904;2022-10-29T13:30:45;98018.25;;;21.36;61.49
72038;BME280;59900;50.788;12.904;2022-10-29T13:41:08;98028.50;;;21.44;60.97
72038;BME280;59900;50.788;12.904;2022-10-29T13:43:35;98027.97;;;21.47;60.25
72038;BME280;59900;50.788;12.904;2022-10-29T13:48:39;98028.53;;;21.49;60.32
72038;BME280;59900;50.788;12.904;2022-10-29T13:51:09;98022.09;;;21.45;59.69
72038;BME280;59900;50.788;12.904;2022-10-29T13:53:48;98023.41;;;21.42;59.54
72038;BME280;59900;50.788;12.904;2022-10-29T13:56:19;98027.94;;;21.42;60.03
72038;BME280;59900;50.788;12.904;2022-10-29T13:58:50;98020.66;;;21.37;58.93
72038;BME280;59900;50.788;12.904;2022-10-29T14:01:17;98020.63;;;21.32;59.58
72038;BME280;59900;50.788;12.904;2022-10-29T14:03:58;98020.63;;;21.32;58.89
72038;BME280;59900;50.788;12.904;2022-10-29T14:06:30;98024.63;;;21.30;58.74
72038;BME280;59900;50.788;12.904;2022-10-29T14:09:06;98029.41;;;21.28;58.35
72038;BME280;59900;50.788;12.904;2022-10-29T14:11:40;98024.63;;;21.30;58.33
72038;BME280;59900;50.788;12.904;2022-10-29T14:14:27;98018.16;;;21.26;58.08
72038;BME280;59900;50.788;12.904;2022-10-29T14:17:16;98024.00;;;21.22;57.84
72038;BME280;59900;50.788;12.904;2022-10-29T14:19:45;98020.78;;;21.20;57.89
72038;BME280;59900;50.788;12.904;2022-10-29T14:22:18;98018.91;;;21.21;58.13
72038;BME280;59900;50.788;12.904;2022-10-29T14:24:45;98021.28;;;21.17;58.47
72038;BME280;59900;50.788;12.904;2022-10-29T14:27:11;98020.97;;;21.14;58.44
72038;BME280;59900;50.788;12.904;2022-10-29T14:29:39;98019.59;;;21.11;59.05
72038;BME280;59900;50.788;12.904;2022-10-29T14:32:19;98023.34;;;21.10;59.02
72038;BME280;59900;50.788;12.904;2022-10-29T14:34:48;98020.09;;;21.08;59.24